sensor_id;sensor_type;location;lat;lon;timestamp;pressure;altitude;pressure_sealevel;temperature
42197;BMP280;27866;48.146;17.098;2023-07-09T00:02:48;99962.56;;;24.54
42197;BMP280;27866;48.146;17.098;2023-07-09T00:07:01;99963.50;;;24.46
42197;BMP280;27866;48.146;17.098;2023-07-09T00:11:14;99963.66;;;24.45
42197;BMP280;27866;48.146;17.098;2023-07-09T00:15:25;99960.38;;;24.43
42197;BMP280;27866;48.146;17.098;2023-07-09T00:19:38;99967.69;;;24.41
42197;BMP280;27866;48.146;17.098;2023-07-09T00:23:49;99956.28;;;24.40
42197;BMP280;27866;48.146;17.098;2023-07-09T00:28:00;99953.63;;;24.40
42197;BMP280;27866;48.146;17.098;2023-07-09T00:32:15;99966.88;;;24.40
42197;BMP280;27866;48.146;17.098;2023-07-09T00:36:29;99965.22;;;24.39
42197;BMP280;27866;48.146;17.098;2023-07-09T00:40:47;99958.63;;;24.36
42197;BMP280;27866;48.146;17.098;2023-07-09T00:44:59;99965.59;;;24.37
42197;BMP280;27866;48.146;17.098;2023-07-09T00:49:11;99965.31;;;24.32
42197;BMP280;27866;48.146;17.098;2023-07-09T00:53:29;99974.47;;;24.29
42197;BMP280;27866;48.146;17.098;2023-07-09T00:57:41;99978.63;;;24.24
42197;BMP280;27866;48.146;17.098;2023-07-09T01:01:53;99983.22;;;24.16
42197;BMP280;27866;48.146;17.098;2023-07-09T01:06:05;99983.22;;;24.16
42197;BMP280;27866;48.146;17.098;2023-07-09T01:10:17;99993.72;;;24.10
42197;BMP280;27866;48.146;17.098;2023-07-09T01:14:29;99990.97;;;24.03
42197;BMP280;27866;48.146;17.098;2023-07-09T01:18:42;99981.75;;;23.99
42197;BMP280;27866;48.146;17.098;2023-07-09T01:22:54;99994.19;;;23.99
42197;BMP280;27866;48.146;17.098;2023-07-09T01:27:11;99994.19;;;23.99
42197;BMP280;27866;48.146;17.098;2023-07-09T01:31:22;99994.34;;;23.97
42197;BMP280;27866;48.146;17.098;2023-07-09T01:35:36;99988.25;;;23.97
42197;BMP280;27866;48.146;17.098;2023-07-09T01:39:48;99999.56;;;23.91
42197;BMP280;27866;48.146;17.098;2023-07-09T01:44:00;99994.53;;;23.82
42197;BMP280;27866;48.146;17.098;2023-07-09T01:48:11;99988.44;;;23.74
42197;BMP280;27866;48.146;17.098;2023-07-09T01:52:28;99997.81;;;23.62
42197;BMP280;27866;48.146;17.098;2023-07-09T01:56:39;100000.19;;;23.57
42197;BMP280;27866;48.146;17.098;2023-07-09T02:00:51;100006.19;;;23.52
42197;BMP280;27866;48.146;17.098;2023-07-09T02:05:02;100001.94;;;23.43
42197;BMP280;27866;48.146;17.098;2023-07-09T02:09:13;100003.69;;;23.36
42197;BMP280;27866;48.146;17.098;2023-07-09T02:13:24;100005.91;;;23.25
42197;BMP280;27866;48.146;17.098;2023-07-09T02:17:35;100010.09;;;23.20
42197;BMP280;27866;48.146;17.098;2023-07-09T02:21:46;100007.13;;;23.15
42197;BMP280;27866;48.146;17.098;2023-07-09T02:25:57;100002.22;;;23.12
42197;BMP280;27866;48.146;17.098;2023-07-09T02:30:09;100007.84;;;23.09
42197;BMP280;27866;48.146;17.098;2023-07-09T02:34:21;100019.91;;;23.04
42197;BMP280;27866;48.146;17.098;2023-07-09T02:38:36;100022.72;;;23.02
42197;BMP280;27866;48.146;17.098;2023-07-09T02:42:48;100017.44;;;23.02
42197;BMP280;27866;48.146;17.098;2023-07-09T02:47:02;100019.78;;;22.97
42197;BMP280;27866;48.146;17.098;2023-07-09T02:51:13;100029.41;;;22.91
42197;BMP280;27866;48.146;17.098;2023-07-09T02:55:24;100037.34;;;22.91
42197;BMP280;27866;48.146;17.098;2023-07-09T02:59:35;100038.81;;;22.93
42197;BMP280;27866;48.146;17.098;2023-07-09T03:03:46;100035.84;;;22.88
42197;BMP280;27866;48.146;17.098;2023-07-09T03:07:57;100032.22;;;22.89
42197;BMP280;27866;48.146;17.098;2023-07-09T03:12:08;100041.97;;;22.89
42197;BMP280;27866;48.146;17.098;2023-07-09T03:16:19;100043.78;;;22.88
42197;BMP280;27866;48.146;17.098;2023-07-09T03:20:30;100045.75;;;22.86
42197;BMP280;27866;48.146;17.098;2023-07-09T03:24:42;100046.78;;;22.85
42197;BMP280;27866;48.146;17.098;2023-07-09T03:28:54;100047.28;;;22.81
42197;BMP280;27866;48.146;17.098;2023-07-09T03:33:05;100051.53;;;22.90
42197;BMP280;27866;48.146;17.098;2023-07-09T03:37:16;100050.19;;;22.93
42197;BMP280;27866;48.146;17.098;2023-07-09T03:41:27;100049.47;;;22.99
42197;BMP280;27866;48.146;17.098;2023-07-09T03:45:38;100049.63;;;23.06
42197;BMP280;27866;48.146;17.098;2023-07-09T03:49:49;100063.28;;;23.17
42197;BMP280;27866;48.146;17.098;2023-07-09T03:54:00;100052.31;;;23.27
42197;BMP280;27866;48.146;17.098;2023-07-09T03:58:11;100062.47;;;23.38
42197;BMP280;27866;48.146;17.098;2023-07-09T04:02:22;100047.22;;;23.48
42197;BMP280;27866;48.146;17.098;2023-07-09T04:06:34;100050.06;;;23.60
42197;BMP280;27866;48.146;17.098;2023-07-09T04:10:45;100053.25;;;23.78
42197;BMP280;27866;48.146;17.098;2023-07-09T04:14:56;100061.38;;;23.90
42197;BMP280;27866;48.146;17.098;2023-07-09T04:19:07;100064.59;;;24.00
42197;BMP280;27866;48.146;17.098;2023-07-09T04:23:19;100057.22;;;24.10
42197;BMP280;27866;48.146;17.098;2023-07-09T04:27:30;100060.25;;;24.21
42197;BMP280;27866;48.146;17.098;2023-07-09T04:31:41;100059.63;;;24.33
42197;BMP280;27866;48.146;17.098;2023-07-09T04:35:52;100060.84;;;24.44
42197;BMP280;27866;48.146;17.098;2023-07-09T04:40:04;100067.78;;;24.45
42197;BMP280;27866;48.146;17.098;2023-07-09T04:44:17;100065.94;;;24.60
42197;BMP280;27866;48.146;17.098;2023-07-09T04:48:28;100073.97;;;24.66
42197;BMP280;27866;48.146;17.098;2023-07-09T04:52:39;100072.69;;;24.76
42197;BMP280;27866;48.146;17.098;2023-07-09T04:56:50;100066.72;;;24.88
42197;BMP280;27866;48.146;17.098;2023-07-09T05:01:01;100073.94;;;24.94
42197;BMP280;27866;48.146;17.098;2023-07-09T05:11:24;100078.75;;;25.19
42197;BMP280;27866;48.146;17.098;2023-07-09T05:15:35;100079.91;;;25.30
42197;BMP280;27866;48.146;17.098;2023-07-09T05:19:46;100079.34;;;25.35
42197;BMP280;27866;48.146;17.098;2023-07-09T05:23:57;100081.56;;;25.52
42197;BMP280;27866;48.146;17.098;2023-07-09T05:28:08;100075.38;;;25.65
42197;BMP280;27866;48.146;17.098;2023-07-09T05:32:19;100072.72;;;25.65
42197;BMP280;27866;48.146;17.098;2023-07-09T05:36:30;100082.84;;;25.76
42197;BMP280;27866;48.146;17.098;2023-07-09T05:40:42;100082.31;;;25.86
42197;BMP280;27866;48.146;17.098;2023-07-09T05:44:53;100088.53;;;25.99
42197;BMP280;27866;48.146;17.098;2023-07-09T05:49:05;100085.19;;;26.12
42197;BMP280;27866;48.146;17.098;2023-07-09T05:53:16;100081.56;;;26.19
42197;BMP280;27866;48.146;17.098;2023-07-09T05:57:27;100087.59;;;26.27
42197;BMP280;27866;48.146;17.098;2023-07-09T06:01:38;100086.06;;;26.45
42197;BMP280;27866;48.146;17.098;2023-07-09T06:05:49;100087.16;;;26.57
42197;BMP280;27866;48.146;17.098;2023-07-09T06:10:01;100095.00;;;26.71
42197;BMP280;27866;48.146;17.098;2023-07-09T06:14:12;100095.69;;;26.85
42197;BMP280;27866;48.146;17.098;2023-07-09T06:18:24;100095.34;;;26.88
42197;BMP280;27866;48.146;17.098;2023-07-09T06:22:35;100108.69;;;27.01
42197;BMP280;27866;48.146;17.098;2023-07-09T06:26:46;100104.41;;;27.06
42197;BMP280;27866;48.146;17.098;2023-07-09T06:30:57;100106.53;;;27.23
42197;BMP280;27866;48.146;17.098;2023-07-09T06:35:08;100101.25;;;27.42
42197;BMP280;27866;48.146;17.098;2023-07-09T06:39:19;100110.88;;;27.36
42197;BMP280;27866;48.146;17.098;2023-07-09T06:43:30;100114.84;;;27.59
42197;BMP280;27866;48.146;17.098;2023-07-09T06:47:42;100107.13;;;27.83
42197;BMP280;27866;48.146;17.098;2023-07-09T06:51:53;100095.84;;;27.93
42197;BMP280;27866;48.146;17.098;2023-07-09T06:56:05;100103.66;;;28.14
42197;BMP280;27866;48.146;17.098;2023-07-09T07:00:16;100114.28;;;28.26
42197;BMP280;27866;48.146;17.098;2023-07-09T07:04:27;100103.22;;;28.42
42197;BMP280;27866;48.146;17.098;2023-07-09T07:08:38;100099.72;;;28.54
42197;BMP280;27866;48.146;17.098;2023-07-09T07:12:49;100108.72;;;28.72
42197;BMP280;27866;48.146;17.098;2023-07-09T07:17:00;100111.78;;;29.79
42197;BMP280;27866;48.146;17.098;2023-07-09T07:21:12;100123.25;;;34.27
42197;BMP280;27866;48.146;17.098;2023-07-09T07:25:23;100103.88;;;38.79
42197;BMP280;27866;48.146;17.098;2023-07-09T07:29:35;100096.81;;;34.24
42197;BMP280;27866;48.146;17.098;2023-07-09T07:33:46;100099.06;;;36.39
42197;BMP280;27866;48.146;17.098;2023-07-09T07:37:57;100099.38;;;36.17
42197;BMP280;27866;48.146;17.098;2023-07-09T07:42:08;100090.72;;;35.59
42197;BMP280;27866;48.146;17.098;2023-07-09T07:46:19;100095.44;;;33.24
42197;BMP280;27866;48.146;17.098;2023-07-09T07:50:30;100089.94;;;31.86
42197;BMP280;27866;48.146;17.098;2023-07-09T07:54:41;100090.22;;;31.21
42197;BMP280;27866;48.146;17.098;2023-07-09T07:58:52;100089.91;;;30.59
42197;BMP280;27866;48.146;17.098;2023-07-09T08:03:03;100088.38;;;30.46
42197;BMP280;27866;48.146;17.098;2023-07-09T08:07:15;100087.47;;;30.34
42197;BMP280;27866;48.146;17.098;2023-07-09T08:11:26;100077.03;;;30.50
42197;BMP280;27866;48.146;17.098;2023-07-09T08:15:38;100082.09;;;32.57
42197;BMP280;27866;48.146;17.098;2023-07-09T08:19:51;100094.31;;;34.86
42197;BMP280;27866;48.146;17.098;2023-07-09T08:24:04;100078.38;;;36.19
42197;BMP280;27866;48.146;17.098;2023-07-09T08:28:15;100084.69;;;33.78
42197;BMP280;27866;48.146;17.098;2023-07-09T08:32:26;100079.06;;;32.54
42197;BMP280;27866;48.146;17.098;2023-07-09T08:36:39;100091.81;;;34.80
42197;BMP280;27866;48.146;17.098;2023-07-09T08:40:58;100083.78;;;34.85
42197;BMP280;27866;48.146;17.098;2023-07-09T08:49:26;100080.28;;;33.07
42197;BMP280;27866;48.146;17.098;2023-07-09T08:54:22;100082.22;;;33.34
42197;BMP280;27866;48.146;17.098;2023-07-09T08:58:36;100079.47;;;34.15
42197;BMP280;27866;48.146;17.098;2023-07-09T09:02:52;100081.16;;;34.37
42197;BMP280;27866;48.146;17.098;2023-07-09T09:07:19;100073.88;;;34.69
42197;BMP280;27866;48.146;17.098;2023-07-09T09:11:44;100068.00;;;34.19
42197;BMP280;27866;48.146;17.098;2023-07-09T09:15:56;100074.16;;;34.36
42197;BMP280;27866;48.146;17.098;2023-07-09T09:20:16;100075.88;;;36.43
42197;BMP280;27866;48.146;17.098;2023-07-09T09:28:56;100095.50;;;41.59
42197;BMP280;27866;48.146;17.098;2023-07-09T09:33:10;100084.38;;;44.65
42197;BMP280;27866;48.146;17.098;2023-07-09T09:37:30;100085.22;;;47.54
42197;BMP280;27866;48.146;17.098;2023-07-09T09:41:41;100087.31;;;48.67
42197;BMP280;27866;48.146;17.098;2023-07-09T09:45:54;100079.88;;;48.79
42197;BMP280;27866;48.146;17.098;2023-07-09T09:50:06;100079.19;;;49.98
42197;BMP280;27866;48.146;17.098;2023-07-09T09:54:24;100084.72;;;51.23
42197;BMP280;27866;48.146;17.098;2023-07-09T09:58:39;100079.81;;;52.54
42197;BMP280;27866;48.146;17.098;2023-07-09T10:02:56;100076.56;;;52.48
42197;BMP280;27866;48.146;17.098;2023-07-09T10:07:07;100075.19;;;53.44
42197;BMP280;27866;48.146;17.098;2023-07-09T10:16:23;100064.81;;;53.92
42197;BMP280;27866;48.146;17.098;2023-07-09T10:20:38;100058.56;;;53.44
42197;BMP280;27866;48.146;17.098;2023-07-09T10:42:55;100045.78;;;53.90
42197;BMP280;27866;48.146;17.098;2023-07-09T10:47:47;100030.94;;;54.08
42197;BMP280;27866;48.146;17.098;2023-07-09T10:52:05;100019.34;;;54.32
42197;BMP280;27866;48.146;17.098;2023-07-09T10:56:24;100020.34;;;54.49
42197;BMP280;27866;48.146;17.098;2023-07-09T11:00:38;100033.75;;;54.79
42197;BMP280;27866;48.146;17.098;2023-07-09T11:05:00;100020.38;;;53.60
42197;BMP280;27866;48.146;17.098;2023-07-09T11:09:26;100018.69;;;53.52
42197;BMP280;27866;48.146;17.098;2023-07-09T11:13:49;100020.31;;;53.31
42197;BMP280;27866;48.146;17.098;2023-07-09T11:18:07;100013.25;;;53.91
42197;BMP280;27866;48.146;17.098;2023-07-09T11:22:22;100005.09;;;53.44
42197;BMP280;27866;48.146;17.098;2023-07-09T11:26:35;100015.16;;;54.16
42197;BMP280;27866;48.146;17.098;2023-07-09T11:30:49;100009.94;;;53.75
42197;BMP280;27866;48.146;17.098;2023-07-09T11:35:08;99998.47;;;54.44
42197;BMP280;27866;48.146;17.098;2023-07-09T11:39:29;99995.88;;;53.94
42197;BMP280;27866;48.146;17.098;2023-07-09T11:43:47;99990.56;;;54.46
42197;BMP280;27866;48.146;17.098;2023-07-09T11:52:42;99983.78;;;54.08
42197;BMP280;27866;48.146;17.098;2023-07-09T11:56:58;99981.94;;;54.19
42197;BMP280;27866;48.146;17.098;2023-07-09T12:01:14;99977.53;;;55.48
42197;BMP280;27866;48.146;17.098;2023-07-09T12:05:28;99971.13;;;55.44
42197;BMP280;27866;48.146;17.098;2023-07-09T12:09:43;99961.66;;;54.50
42197;BMP280;27866;48.146;17.098;2023-07-09T12:14:04;99969.34;;;55.16
42197;BMP280;27866;48.146;17.098;2023-07-09T12:18:17;99955.56;;;55.29
42197;BMP280;27866;48.146;17.098;2023-07-09T12:22:28;99951.59;;;56.16
42197;BMP280;27866;48.146;17.098;2023-07-09T12:26:40;99958.09;;;54.99
42197;BMP280;27866;48.146;17.098;2023-07-09T12:30:52;99925.69;;;50.44
42197;BMP280;27866;48.146;17.098;2023-07-09T12:35:04;99936.56;;;47.35
42197;BMP280;27866;48.146;17.098;2023-07-09T12:39:18;99935.56;;;50.03
42197;BMP280;27866;48.146;17.098;2023-07-09T12:43:30;99925.22;;;51.35
42197;BMP280;27866;48.146;17.098;2023-07-09T12:47:42;99912.38;;;51.09
42197;BMP280;27866;48.146;17.098;2023-07-09T12:51:58;99926.00;;;51.54
42197;BMP280;27866;48.146;17.098;2023-07-09T12:56:12;99922.22;;;51.98
42197;BMP280;27866;48.146;17.098;2023-07-09T13:00:29;99910.19;;;51.18
42197;BMP280;27866;48.146;17.098;2023-07-09T13:04:41;99917.66;;;49.56
42197;BMP280;27866;48.146;17.098;2023-07-09T13:08:59;99902.75;;;51.73
42197;BMP280;27866;48.146;17.098;2023-07-09T13:13:11;99906.81;;;51.97
42197;BMP280;27866;48.146;17.098;2023-07-09T13:17:23;99901.50;;;52.76
42197;BMP280;27866;48.146;17.098;2023-07-09T13:21:38;99898.41;;;52.81
42197;BMP280;27866;48.146;17.098;2023-07-09T13:25:50;99896.91;;;51.96
42197;BMP280;27866;48.146;17.098;2023-07-09T13:30:03;99893.25;;;51.93
42197;BMP280;27866;48.146;17.098;2023-07-09T13:34:25;99885.84;;;52.40
42197;BMP280;27866;48.146;17.098;2023-07-09T13:38:36;99895.97;;;52.29
42197;BMP280;27866;48.146;17.098;2023-07-09T13:42:47;99903.00;;;51.87
42197;BMP280;27866;48.146;17.098;2023-07-09T13:46:59;99887.28;;;51.17
42197;BMP280;27866;48.146;17.098;2023-07-09T13:51:17;99879.81;;;50.69
42197;BMP280;27866;48.146;17.098;2023-07-09T13:55:29;99868.47;;;51.04
42197;BMP280;27866;48.146;17.098;2023-07-09T13:59:41;99877.78;;;51.15
42197;BMP280;27866;48.146;17.098;2023-07-09T14:03:54;99878.44;;;48.74
42197;BMP280;27866;48.146;17.098;2023-07-09T14:08:09;99877.16;;;49.18
42197;BMP280;27866;48.146;17.098;2023-07-09T14:12:21;99867.63;;;49.04
42197;BMP280;27866;48.146;17.098;2023-07-09T14:16:32;99863.16;;;49.49
42197;BMP280;27866;48.146;17.098;2023-07-09T14:20:43;99865.34;;;49.71
42197;BMP280;27866;48.146;17.098;2023-07-09T14:24:54;99858.78;;;49.10
42197;BMP280;27866;48.146;17.098;2023-07-09T14:29:07;99865.41;;;49.21
42197;BMP280;27866;48.146;17.098;2023-07-09T14:33:19;99854.69;;;48.81
42197;BMP280;27866;48.146;17.098;2023-07-09T14:37:31;99847.59;;;47.68
42197;BMP280;27866;48.146;17.098;2023-07-09T14:41:42;99852.88;;;46.53
42197;BMP280;27866;48.146;17.098;2023-07-09T14:45:53;99853.16;;;45.38
42197;BMP280;27866;48.146;17.098;2023-07-09T14:50:06;99852.72;;;43.53
42197;BMP280;27866;48.146;17.098;2023-07-09T14:54:23;99842.91;;;42.23
42197;BMP280;27866;48.146;17.098;2023-07-09T14:58:34;99841.28;;;41.34
42197;BMP280;27866;48.146;17.098;2023-07-09T15:02:48;99828.56;;;40.58
42197;BMP280;27866;48.146;17.098;2023-07-09T15:07:00;99834.91;;;39.80
42197;BMP280;27866;48.146;17.098;2023-07-09T15:11:11;99833.56;;;39.50
42197;BMP280;27866;48.146;17.098;2023-07-09T15:15:27;99825.63;;;38.94
42197;BMP280;27866;48.146;17.098;2023-07-09T15:19:39;99827.13;;;38.67
42197;BMP280;27866;48.146;17.098;2023-07-09T15:23:50;99818.09;;;38.25
42197;BMP280;27866;48.146;17.098;2023-07-09T15:28:01;99815.16;;;38.16
42197;BMP280;27866;48.146;17.098;2023-07-09T15:32:13;99804.97;;;37.99
42197;BMP280;27866;48.146;17.098;2023-07-09T15:36:24;99812.81;;;37.81
42197;BMP280;27866;48.146;17.098;2023-07-09T15:40:35;99804.22;;;37.55
42197;BMP280;27866;48.146;17.098;2023-07-09T15:44:46;99813.69;;;37.38
42197;BMP280;27866;48.146;17.098;2023-07-09T15:48:57;99803.94;;;37.13
42197;BMP280;27866;48.146;17.098;2023-07-09T15:53:10;99798.28;;;37.00
42197;BMP280;27866;48.146;17.098;2023-07-09T15:57:21;99805.28;;;36.86
42197;BMP280;27866;48.146;17.098;2023-07-09T16:01:32;99784.75;;;36.71
42197;BMP280;27866;48.146;17.098;2023-07-09T16:05:43;99788.22;;;36.71
42197;BMP280;27866;48.146;17.098;2023-07-09T16:09:55;99780.19;;;36.76
42197;BMP280;27866;48.146;17.098;2023-07-09T16:14:33;99775.81;;;36.70
42197;BMP280;27866;48.146;17.098;2023-07-09T16:18:43;99780.09;;;36.42
42197;BMP280;27866;48.146;17.098;2023-07-09T16:22:55;99780.28;;;36.22
42197;BMP280;27866;48.146;17.098;2023-07-09T16:27:08;99778.09;;;36.14
42197;BMP280;27866;48.146;17.098;2023-07-09T16:31:22;99782.38;;;36.10
42197;BMP280;27866;48.146;17.098;2023-07-09T16:35:33;99776.13;;;35.95
42197;BMP280;27866;48.146;17.098;2023-07-09T16:39:44;99773.13;;;35.92
42197;BMP280;27866;48.146;17.098;2023-07-09T16:43:55;99784.63;;;35.78
42197;BMP280;27866;48.146;17.098;2023-07-09T16:48:21;99778.09;;;35.69
42197;BMP280;27866;48.146;17.098;2023-07-09T16:52:32;99781.47;;;35.45
42197;BMP280;27866;48.146;17.098;2023-07-09T16:56:43;99780.09;;;35.43
42197;BMP280;27866;48.146;17.098;2023-07-09T17:00:54;99770.84;;;35.34
42197;BMP280;27866;48.146;17.098;2023-07-09T17:05:06;99774.84;;;35.27
42197;BMP280;27866;48.146;17.098;2023-07-09T17:09:18;99770.91;;;35.08
42197;BMP280;27866;48.146;17.098;2023-07-09T17:13:32;99775.59;;;34.92
42197;BMP280;27866;48.146;17.098;2023-07-09T17:17:43;99764.72;;;34.77
42197;BMP280;27866;48.146;17.098;2023-07-09T17:21:54;99766.66;;;34.56
42197;BMP280;27866;48.146;17.098;2023-07-09T17:26:07;99763.84;;;34.21
42197;BMP280;27866;48.146;17.098;2023-07-09T17:30:18;99768.25;;;33.90
42197;BMP280;27866;48.146;17.098;2023-07-09T17:34:32;99757.88;;;33.77
42197;BMP280;27866;48.146;17.098;2023-07-09T17:38:43;99766.38;;;33.54
42197;BMP280;27866;48.146;17.098;2023-07-09T17:42:55;99759.47;;;33.21
42197;BMP280;27866;48.146;17.098;2023-07-09T17:47:14;99766.69;;;32.88
42197;BMP280;27866;48.146;17.098;2023-07-09T17:51:26;99767.84;;;32.65
42197;BMP280;27866;48.146;17.098;2023-07-09T17:55:37;99768.44;;;32.40
42197;BMP280;27866;48.146;17.098;2023-07-09T17:59:48;99762.00;;;32.14
42197;BMP280;27866;48.146;17.098;2023-07-09T18:03:59;99762.09;;;31.92
42197;BMP280;27866;48.146;17.098;2023-07-09T18:08:11;99762.59;;;31.67
42197;BMP280;27866;48.146;17.098;2023-07-09T18:12:26;99765.88;;;31.46
42197;BMP280;27866;48.146;17.098;2023-07-09T18:16:38;99775.69;;;31.30
42197;BMP280;27866;48.146;17.098;2023-07-09T18:20:50;99765.75;;;31.08
42197;BMP280;27866;48.146;17.098;2023-07-09T18:25:01;99770.97;;;30.92
42197;BMP280;27866;48.146;17.098;2023-07-09T18:33:38;99771.34;;;30.56
42197;BMP280;27866;48.146;17.098;2023-07-09T18:37:50;99765.50;;;30.48
42197;BMP280;27866;48.146;17.098;2023-07-09T18:42:03;99776.38;;;30.35
42197;BMP280;27866;48.146;17.098;2023-07-09T18:46:15;99771.09;;;30.18
42197;BMP280;27866;48.146;17.098;2023-07-09T18:50:28;99776.56;;;30.05
42197;BMP280;27866;48.146;17.098;2023-07-09T18:54:40;99769.31;;;29.94
42197;BMP280;27866;48.146;17.098;2023-07-09T18:58:51;99785.97;;;29.79
42197;BMP280;27866;48.146;17.098;2023-07-09T19:03:02;99784.00;;;29.68
42197;BMP280;27866;48.146;17.098;2023-07-09T19:07:15;99790.44;;;29.61
42197;BMP280;27866;48.146;17.098;2023-07-09T19:11:27;99785.84;;;29.50
42197;BMP280;27866;48.146;17.098;2023-07-09T19:15:38;99793.56;;;29.41
42197;BMP280;27866;48.146;17.098;2023-07-09T19:19:49;99796.13;;;29.30
42197;BMP280;27866;48.146;17.098;2023-07-09T19:24:00;99800.09;;;29.21
42197;BMP280;27866;48.146;17.098;2023-07-09T19:28:13;99806.75;;;29.12
42197;BMP280;27866;48.146;17.098;2023-07-09T19:32:25;99807.81;;;29.05
42197;BMP280;27866;48.146;17.098;2023-07-09T19:36:37;99809.53;;;29.00
42197;BMP280;27866;48.146;17.098;2023-07-09T19:40:48;99816.50;;;28.94
42197;BMP280;27866;48.146;17.098;2023-07-09T19:44:59;99816.59;;;28.88
42197;BMP280;27866;48.146;17.098;2023-07-09T19:49:10;99816.03;;;28.80
42197;BMP280;27866;48.146;17.098;2023-07-09T19:53:23;99820.78;;;28.72
42197;BMP280;27866;48.146;17.098;2023-07-09T19:57:38;99820.63;;;28.67
42197;BMP280;27866;48.146;17.098;2023-07-09T20:01:50;99824.75;;;28.63
42197;BMP280;27866;48.146;17.098;2023-07-09T20:06:01;99828.88;;;28.59
42197;BMP280;27866;48.146;17.098;2023-07-09T20:10:13;99830.94;;;28.57
42197;BMP280;27866;48.146;17.098;2023-07-09T20:14:24;99829.09;;;28.51
42197;BMP280;27866;48.146;17.098;2023-07-09T20:18:36;99842.66;;;28.50
42197;BMP280;27866;48.146;17.098;2023-07-09T20:22:47;99839.00;;;28.45
42197;BMP280;27866;48.146;17.098;2023-07-09T20:26:58;99846.31;;;28.55
42197;BMP280;27866;48.146;17.098;2023-07-09T20:31:21;99845.94;;;28.58
42197;BMP280;27866;48.146;17.098;2023-07-09T20:35:33;99848.97;;;28.55
42197;BMP280;27866;48.146;17.098;2023-07-09T20:39:44;99847.00;;;28.45
42197;BMP280;27866;48.146;17.098;2023-07-09T20:43:55;99845.41;;;28.37
42197;BMP280;27866;48.146;17.098;2023-07-09T20:48:07;99844.81;;;28.29
42197;BMP280;27866;48.146;17.098;2023-07-09T20:52:19;99848.31;;;28.23
42197;BMP280;27866;48.146;17.098;2023-07-09T20:56:31;99861.72;;;28.11
42197;BMP280;27866;48.146;17.098;2023-07-09T21:00:43;99861.69;;;27.98
42197;BMP280;27866;48.146;17.098;2023-07-09T21:04:55;99858.03;;;27.93
42197;BMP280;27866;48.146;17.098;2023-07-09T21:09:28;99858.88;;;27.87
42197;BMP280;27866;48.146;17.098;2023-07-09T21:13:41;99859.53;;;27.76
42197;BMP280;27866;48.146;17.098;2023-07-09T21:17:52;99866.94;;;27.62
42197;BMP280;27866;48.146;17.098;2023-07-09T21:22:09;99868.38;;;27.52
42197;BMP280;27866;48.146;17.098;2023-07-09T21:26:20;99863.47;;;27.43
42197;BMP280;27866;48.146;17.098;2023-07-09T21:30:32;99870.22;;;27.32
42197;BMP280;27866;48.146;17.098;2023-07-09T21:34:43;99858.56;;;27.27
42197;BMP280;27866;48.146;17.098;2023-07-09T21:38:54;99866.13;;;27.24
42197;BMP280;27866;48.146;17.098;2023-07-09T21:43:05;99870.22;;;27.14
42197;BMP280;27866;48.146;17.098;2023-07-09T21:47:17;99868.16;;;27.09
42197;BMP280;27866;48.146;17.098;2023-07-09T21:51:29;99868.59;;;27.06
42197;BMP280;27866;48.146;17.098;2023-07-09T21:55:40;99869.41;;;27.01
42197;BMP280;27866;48.146;17.098;2023-07-09T21:59:51;99864.50;;;26.98
42197;BMP280;27866;48.146;17.098;2023-07-09T22:04:14;99883.28;;;26.96
42197;BMP280;27866;48.146;17.098;2023-07-09T22:08:25;99877.78;;;26.91
42197;BMP280;27866;48.146;17.098;2023-07-09T22:12:36;99879.78;;;26.83
42197;BMP280;27866;48.146;17.098;2023-07-09T22:16:49;99877.28;;;26.75
42197;BMP280;27866;48.146;17.098;2023-07-09T22:21:00;99870.13;;;26.70
42197;BMP280;27866;48.146;17.098;2023-07-09T22:25:13;99862.78;;;26.65
42197;BMP280;27866;48.146;17.098;2023-07-09T22:29:24;99871.97;;;26.63
42197;BMP280;27866;48.146;17.098;2023-07-09T22:33:35;99857.88;;;26.56
42197;BMP280;27866;48.146;17.098;2023-07-09T22:37:47;99862.56;;;26.54
42197;BMP280;27866;48.146;17.098;2023-07-09T22:41:58;99855.59;;;26.53
42197;BMP280;27866;48.146;17.098;2023-07-09T22:46:13;99852.72;;;26.48
42197;BMP280;27866;48.146;17.098;2023-07-09T22:50:29;99851.88;;;26.42
42197;BMP280;27866;48.146;17.098;2023-07-09T22:54:41;99850.63;;;26.38
42197;BMP280;27866;48.146;17.098;2023-07-09T22:58:53;99849.00;;;26.30
42197;BMP280;27866;48.146;17.098;2023-07-09T23:03:09;99843.47;;;26.32
42197;BMP280;27866;48.146;17.098;2023-07-09T23:07:21;99849.81;;;26.31
42197;BMP280;27866;48.146;17.098;2023-07-09T23:11:34;99848.75;;;26.26
42197;BMP280;27866;48.146;17.098;2023-07-09T23:15:45;99848.13;;;26.24
42197;BMP280;27866;48.146;17.098;2023-07-09T23:19:56;99841.78;;;26.18
42197;BMP280;27866;48.146;17.098;2023-07-09T23:24:08;99841.97;;;26.17
42197;BMP280;27866;48.146;17.098;2023-07-09T23:28:19;99847.69;;;26.14
42197;BMP280;27866;48.146;17.098;2023-07-09T23:32:30;99845.63;;;26.10
42197;BMP280;27866;48.146;17.098;2023-07-09T23:36:41;99848.06;;;26.05
42197;BMP280;27866;48.146;17.098;2023-07-09T23:40:57;99841.50;;;26.01
42197;BMP280;27866;48.146;17.098;2023-07-09T23:45:17;99841.50;;;26.01
42197;BMP280;27866;48.146;17.098;2023-07-09T23:49:29;99839.03;;;25.99
42197;BMP280;27866;48.146;17.098;2023-07-09T23:53:40;99829.22;;;26.00
42197;BMP280;27866;48.146;17.098;2023-07-09T23:57:54;99833.75;;;26.06
